R/v John Dempsey — WAN9694 — position and weather

sailwx.info

Track history (hours):
 
Tides and Currents Weather Stations Pressure Air Temp Water Temp Dewpoint Dewpoint Depression Visibility Wind Speed Wind Dir Waves Ship Positions

R/v John Dempsey

Owner: CONNECTICUT, STATE OF, OLD LYME, CT. More information available from US FCC via Universal Licensing System and Coast Guard Vessel Documentation Center.

Last reported at 2017-Oct-17 13:53 UTC. Time now 2017-Oct-17 18:55 UTC.
Position N 41°15' W 072°36'.

Type: Fishing. MMSI: 367058813.

Date/timePositionNaut miles runAvg speedWind from/ knotsBaromVisibWave heightAir tempDewpointWater temp
2017-Oct-17 13:53N 41°15' W 072°36'0 0.5
2017-Oct-17 13:30N 41°15' W 072°37'1 1.1
2017-Oct-17 12:37N 41°15' W 072°35'1 3.8
2017-Oct-17 12:29N 41°15' W 072°35'2 3.8
2017-Oct-17 12:00N 41°14' W 072°32'510.7
2017-Oct-17 11:30N 41°15' W 072°25'4 6.9
2017-Oct-17 10:53N 41°17' W 072°21'  
2017-Oct-11 20:48N 41°17' W 072°21'3 7.1
2017-Oct-11 20:21N 41°15' W 072°23'410.1
2017-Oct-11 20:00N 41°14' W 072°28'5 9.1
2017-Oct-11 19:30N 41°14' W 072°34'  
Track history (hours):
 
Tides and Currents Weather Stations Pressure Air Temp Water Temp Dewpoint Dewpoint Depression Visibility Wind Speed Wind Dir Waves Ship Positions

R/v John Dempsey

Owner: CONNECTICUT, STATE OF, OLD LYME, CT. More information available from US FCC via Universal Licensing System and Coast Guard Vessel Documentation Center.

Last reported at 2017-Oct-17 13:53 UTC. Time now 2017-Oct-17 18:55 UTC.
Position N 41°15' W 072°36'.

Type: Fishing. MMSI: 367058813.

Date/timePositionNaut miles runAvg speedWind from/ knotsBaromVisibWave heightAir tempDewpointWater temp
2017-Oct-17 13:53N 41°15' W 072°36'0 0.5
2017-Oct-17 13:30N 41°15' W 072°37'1 1.1
2017-Oct-17 12:37N 41°15' W 072°35'1 3.8
2017-Oct-17 12:29N 41°15' W 072°35'2 3.8
2017-Oct-17 12:00N 41°14' W 072°32'510.7
2017-Oct-17 11:30N 41°15' W 072°25'4 6.9
2017-Oct-17 10:53N 41°17' W 072°21'  
2017-Oct-11 20:48N 41°17' W 072°21'3 7.1
2017-Oct-11 20:21N 41°15' W 072°23'410.1
2017-Oct-11 20:00N 41°14' W 072°28'5 9.1
2017-Oct-11 19:30N 41°14' W 072°34'  

Dump ship's entire track history